Time;durP1;ratioP1;P1;durP2;ratioP2;P2;SDS_P1;SDS_P2;PMS_P1;PMS_P2;Temp;Humidity;BMP_temperature;BMP_pressure;BME280_temperature;BME280_humidity;BME280_pressure;Samples;Min_cycle;Max_cycle;Signal;HPM_P1;HPM_P2
2023/11/09 00:00:41;;;;;;;0.65;0.22;;;7.30;1.00;;;;;;5040957;28;20044;-78
2023/11/09 00:03:08;;;;;;;0.32;0.32;;;7.30;1.00;;;;;;5024399;28;20493;-78
2023/11/09 00:05:34;;;;;;;0.10;0.10;;;7.30;1.00;;;;;;5032456;28;20352;-78
2023/11/09 00:08:00;;;;;;;0.10;0.10;;;7.40;1.00;;;;;;5043807;28;20048;-80
2023/11/09 00:10:27;;;;;;;0.20;0.20;;;7.40;1.00;;;;;;5025007;28;20045;-79
2023/11/09 00:12:53;;;;;;;0.43;0.43;;;7.40;1.00;;;;;;5038906;28;20040;-79
2023/11/09 00:15:22;;;;;;;1.50;0.43;;;7.40;1.00;;;;;;5042012;28;20029;-79
2023/11/09 00:17:49;;;;;;;0.10;0.10;;;7.40;1.00;;;;;;5013387;28;20474;-78
2023/11/09 00:20:20;;;;;;;0.65;0.40;;;7.40;1.00;;;;;;5026474;28;20055;-80
2023/11/09 00:22:48;;;;;;;0.20;0.20;;;7.40;1.00;;;;;;5040079;28;20040;-81
2023/11/09 00:25:14;;;;;;;0.40;0.40;;;7.50;1.00;;;;;;5044631;28;20029;-80
2023/11/09 00:27:41;;;;;;;0.10;0.10;;;7.40;1.00;;;;;;5041978;28;20044;-80
2023/11/09 00:30:07;;;;;;;0.90;0.90;;;7.50;1.00;;;;;;5044334;28;20053;-79
2023/11/09 00:32:34;;;;;;;0.10;0.10;;;7.50;1.00;;;;;;5046832;28;20045;-80
2023/11/09 00:35:00;;;;;;;0.32;0.32;;;7.40;1.00;;;;;;5044957;28;20033;-78
2023/11/09 00:37:28;;;;;;;0.68;0.60;;;7.50;1.00;;;;;;5041863;28;20410;-79
2023/11/09 00:39:59;;;;;;;0.77;0.68;;;7.50;1.00;;;;;;5029176;28;20049;-79
2023/11/09 00:42:25;;;;;;;0.43;0.43;;;7.50;1.00;;;;;;5057664;28;20037;-78
2023/11/09 00:44:52;;;;;;;0.10;0.10;;;7.40;1.00;;;;;;5045041;28;20042;-80
2023/11/09 00:47:18;;;;;;;0.77;0.43;;;7.50;1.00;;;;;;5032099;28;20048;-78
2023/11/09 00:49:44;;;;;;;0.22;0.22;;;7.40;1.00;;;;;;5045627;28;20037;-80
2023/11/09 00:52:12;;;;;;;0.40;0.40;;;7.40;1.00;;;;;;5043308;28;20099;-80
2023/11/09 00:54:38;;;;;;;0.10;0.10;;;7.50;1.00;;;;;;5045533;28;20043;-80
2023/11/09 00:57:04;;;;;;;0.35;0.35;;;7.40;1.00;;;;;;5041582;28;20032;-80
2023/11/09 00:59:30;;;;;;;1.58;1.48;;;7.40;1.00;;;;;;5040307;28;20052;-80
2023/11/09 01:01:57;;;;;;;0.43;0.43;;;7.40;1.00;;;;;;5042066;28;20485;-80
2023/11/09 01:04:24;;;;;;;0.20;0.20;;;7.40;1.00;;;;;;5041205;28;20026;-81
2023/11/09 01:06:51;;;;;;;0.85;0.35;;;7.30;1.00;;;;;;5040127;28;20060;-80
2023/11/09 01:09:17;;;;;;;0.20;0.20;;;7.30;1.00;;;;;;5045201;28;20536;-79
2023/11/09 01:11:45;;;;;;;0.75;0.60;;;7.30;1.00;;;;;;5045187;28;20045;-80
2023/11/09 01:14:11;;;;;;;2.40;1.15;;;7.20;1.00;;;;;;5043492;28;20029;-79
2023/11/09 01:16:37;;;;;;;0.88;0.73;;;7.10;1.00;;;;;;5041430;28;20045;-78
2023/11/09 01:19:04;;;;;;;1.85;1.75;;;7.20;1.00;;;;;;5046211;28;20025;-80
2023/11/09 01:21:31;;;;;;;0.22;0.22;;;7.20;1.00;;;;;;5027107;28;20041;-80
2023/11/09 01:23:57;;;;;;;0.20;0.20;;;7.30;1.00;;;;;;5024937;28;20038;-80
2023/11/09 01:26:24;;;;;;;0.10;0.10;;;7.40;1.00;;;;;;5041006;28;20390;-79
2023/11/09 01:28:50;;;;;;;0.10;0.10;;;7.40;1.00;;;;;;5059385;28;20029;-79
2023/11/09 01:31:17;;;;;;;0.10;0.10;;;7.40;1.00;;;;;;5040270;28;20072;-80
2023/11/09 01:33:44;;;;;;;0.63;0.63;;;7.40;1.00;;;;;;5044485;28;20033;-79
2023/11/09 01:36:14;;;;;;;0.43;0.43;;;7.40;1.00;;;;;;5042822;28;20052;-80
2023/11/09 01:38:42;;;;;;;1.25;0.77;;;7.30;1.00;;;;;;5043740;28;20406;-80
2023/11/09 01:41:09;;;;;;;0.63;0.63;;;7.30;1.00;;;;;;5050822;28;20041;-80
2023/11/09 01:43:35;;;;;;;0.20;0.20;;;7.20;1.00;;;;;;5048975;28;20033;-80
2023/11/09 01:46:04;;;;;;;0.30;0.30;;;7.20;1.00;;;;;;5053398;28;20029;-80
2023/11/09 01:48:34;;;;;;;0.10;0.10;;;7.20;1.00;;;;;;5034658;28;20033;-81
2023/11/09 01:51:01;;;;;;;0.57;0.30;;;7.10;1.00;;;;;;5036440;28;20063;-81
2023/11/09 01:53:28;;;;;;;2.00;0.85;;;7.10;1.00;;;;;;5020355;28;20051;-81
2023/11/09 01:55:54;;;;;;;1.10;0.57;;;7.10;1.00;;;;;;5067232;28;20051;-80
2023/11/09 01:58:22;;;;;;;0.38;0.38;;;7.00;1.00;;;;;;5031540;28;20042;-79
2023/11/09 02:00:49;;;;;;;0.30;0.30;;;7.00;1.00;;;;;;5030847;28;20045;-80
2023/11/09 02:03:16;;;;;;;0.25;0.25;;;7.00;1.00;;;;;;5042217;28;20033;-80
2023/11/09 02:05:42;;;;;;;0.10;0.10;;;7.10;1.00;;;;;;5020928;28;20050;-81
2023/11/09 02:08:08;;;;;;;0.98;0.90;;;7.10;1.00;;;;;;5040462;28;20033;-81
2023/11/09 02:10:35;;;;;;;0.80;0.55;;;7.10;1.00;;;;;;5041282;28;20056;-80
2023/11/09 02:13:02;;;;;;;0.10;0.10;;;7.30;1.00;;;;;;5044440;28;20040;-80
2023/11/09 02:15:28;;;;;;;0.17;0.17;;;7.30;1.00;;;;;;5042147;28;20041;-81
2023/11/09 02:17:55;;;;;;;0.40;0.40;;;7.40;1.00;;;;;;5026559;28;20627;-81
2023/11/09 02:20:23;;;;;;;0.13;0.13;;;7.40;1.00;;;;;;5025993;28;20068;-80
2023/11/09 02:22:53;;;;;;;0.10;0.10;;;7.50;1.00;;;;;;5028754;28;20037;-77
2023/11/09 02:25:20;;;;;;;0.40;0.40;;;7.50;99.90;;;;;;5039824;28;20780;-77
2023/11/09 02:27:46;;;;;;;0.30;0.30;;;7.60;99.90;;;;;;5033423;28;20025;-78
2023/11/09 02:30:13;;;;;;;0.47;0.47;;;7.60;99.90;;;;;;5043055;28;20498;-78
2023/11/09 02:32:39;;;;;;;14.32;3.08;;;7.60;99.90;;;;;;5032520;28;20462;-78
2023/11/09 02:35:08;;;;;;;0.10;0.10;;;7.60;99.90;;;;;;5031332;28;20049;-79
2023/11/09 02:37:35;;;;;;;0.10;0.10;;;7.60;99.90;;;;;;5039932;28;20382;-78
2023/11/09 02:40:01;;;;;;;0.20;0.20;;;7.70;99.90;;;;;;5042073;28;20041;-80
2023/11/09 02:42:27;;;;;;;0.20;0.20;;;7.60;99.90;;;;;;5043109;28;20037;-81
2023/11/09 02:44:53;;;;;;;0.15;0.15;;;7.60;99.90;;;;;;5041147;28;20095;-82
2023/11/09 02:47:20;;;;;;;0.10;0.10;;;7.50;99.90;;;;;;5024392;28;20026;-81
2023/11/09 02:49:46;;;;;;;0.28;0.28;;;7.50;99.90;;;;;;5041764;28;20064;-81
2023/11/09 02:52:12;;;;;;;0.10;0.10;;;7.50;99.90;;;;;;5043321;28;20041;-81
2023/11/09 02:54:39;;;;;;;0.95;0.75;;;7.50;99.90;;;;;;5047114;28;20033;-78
2023/11/09 02:57:06;;;;;;;3.42;1.27;;;7.40;99.90;;;;;;5042116;28;20037;-80
2023/11/09 02:59:32;;;;;;;0.20;0.20;;;7.40;99.90;;;;;;5041487;28;20036;-79
2023/11/09 03:01:58;;;;;;;0.40;0.40;;;7.40;99.90;;;;;;5041002;28;20041;-80
2023/11/09 03:04:24;;;;;;;0.60;0.60;;;7.30;99.90;;;;;;5048187;28;20033;-82
2023/11/09 03:06:51;;;;;;;0.20;0.20;;;7.30;99.90;;;;;;5044173;28;20714;-81
2023/11/09 03:09:18;;;;;;;0.10;0.10;;;7.20;99.90;;;;;;5042424;28;20034;-80
2023/11/09 03:11:45;;;;;;;0.73;0.73;;;7.20;99.90;;;;;;5029862;28;20068;-81
2023/11/09 03:14:11;;;;;;;0.20;0.20;;;7.20;99.90;;;;;;5040120;28;20048;-81
2023/11/09 03:16:38;;;;;;;0.90;0.90;;;7.10;99.90;;;;;;5042325;28;20029;-80
2023/11/09 03:19:07;;;;;;;1.10;0.75;;;7.10;99.90;;;;;;5038675;28;20415;-79
2023/11/09 03:21:33;;;;;;;0.35;0.35;;;7.00;99.90;;;;;;5039242;28;20033;-79
2023/11/09 03:23:59;;;;;;;0.17;0.17;;;7.10;99.90;;;;;;5015266;28;20055;-80
2023/11/09 03:26:25;;;;;;;4.80;1.23;;;7.10;99.90;;;;;;5041024;28;20040;-79
2023/11/09 03:28:51;;;;;;;0.13;0.13;;;7.10;99.90;;;;;;5040782;28;20116;-81
2023/11/09 03:31:18;;;;;;;0.45;0.45;;;7.10;99.90;;;;;;5029145;28;20497;-81
2023/11/09 03:33:44;;;;;;;0.55;0.55;;;7.20;99.90;;;;;;5039682;28;20044;-82
2023/11/09 03:36:17;;;;;;;6.22;1.20;;;7.20;99.90;;;;;;5043266;28;20060;-81
2023/11/09 03:38:45;;;;;;;0.10;0.10;;;7.30;99.90;;;;;;5041788;28;20040;-80
2023/11/09 03:41:11;;;;;;;0.25;0.25;;;7.30;99.90;;;;;;5035966;28;20042;-80
2023/11/09 03:43:38;;;;;;;0.22;0.22;;;7.20;99.90;;;;;;5021248;28;20482;-80
2023/11/09 03:46:04;;;;;;;0.10;0.10;;;7.30;99.90;;;;;;5043339;28;20040;-79
2023/11/09 03:48:30;;;;;;;0.52;0.50;;;7.20;99.90;;;;;;5041284;28;20034;-80
2023/11/09 03:50:56;;;;;;;0.30;0.30;;;7.20;99.90;;;;;;5023900;28;20077;-79
2023/11/09 03:53:22;;;;;;;1.10;0.55;;;7.20;99.90;;;;;;5040285;28;20037;-80
2023/11/09 03:55:48;;;;;;;0.22;0.22;;;7.20;99.90;;;;;;5035548;28;20032;-80
2023/11/09 03:58:15;;;;;;;0.38;0.38;;;7.20;99.90;;;;;;5045426;28;20021;-79
2023/11/09 04:00:41;;;;;;;0.20;0.20;;;7.20;99.90;;;;;;5042234;28;20045;-79
2023/11/09 04:03:07;;;;;;;0.70;0.52;;;7.20;99.90;;;;;;5039552;28;21089;-80
2023/11/09 04:05:33;;;;;;;0.28;0.28;;;7.20;99.90;;;;;;5027147;28;20025;-78
2023/11/09 04:08:00;;;;;;;0.13;0.13;;;7.20;99.90;;;;;;5045395;28;20044;-77
2023/11/09 04:10:26;;;;;;;0.10;0.10;;;7.20;99.90;;;;;;5044369;28;20041;-79
2023/11/09 04:12:52;;;;;;;0.40;0.40;;;7.10;99.90;;;;;;5049926;28;20033;-78
2023/11/09 04:15:18;;;;;;;0.10;0.10;;;7.20;99.90;;;;;;5042177;28;20044;-79
2023/11/09 04:17:44;;;;;;;0.45;0.45;;;7.20;99.90;;;;;;5042062;28;20036;-79
2023/11/09 04:20:11;;;;;;;1.50;0.38;;;7.20;99.90;;;;;;5040112;28;20356;-79
2023/11/09 04:22:37;;;;;;;0.20;0.20;;;7.20;99.90;;;;;;5048902;28;20033;-80
2023/11/09 04:25:04;;;;;;;0.63;0.63;;;7.20;99.90;;;;;;5032780;28;20040;-80
2023/11/09 04:27:30;;;;;;;0.30;0.22;;;7.30;99.90;;;;;;5065836;28;20072;-80
2023/11/09 04:29:57;;;;;;;0.10;0.10;;;7.30;99.90;;;;;;5070992;28;20056;-79
2023/11/09 04:32:24;;;;;;;0.05;0.05;;;7.30;99.90;;;;;;5061359;28;20059;-79
2023/11/09 04:34:50;;;;;;;0.20;0.20;;;7.30;99.90;;;;;;5051213;28;20029;-78
2023/11/09 04:37:20;;;;;;;1.85;0.35;;;7.30;99.90;;;;;;5042479;28;20045;-79
2023/11/09 04:39:50;;;;;;;0.40;0.40;;;7.20;99.90;;;;;;5050661;28;20037;-81
2023/11/09 04:42:19;;;;;;;0.83;0.77;;;7.20;99.90;;;;;;5042895;28;20063;-80
2023/11/09 04:44:46;;;;;;;0.10;0.10;;;7.20;99.90;;;;;;5042296;28;20624;-79
2023/11/09 04:47:13;;;;;;;0.30;0.30;;;7.20;99.90;;;;;;5042462;28;20052;-80
2023/11/09 04:49:45;;;;;;;0.52;0.52;;;7.10;99.90;;;;;;5031381;28;20049;-79
2023/11/09 04:52:15;;;;;;;0.50;0.50;;;7.10;99.90;;;;;;5049866;28;20379;-81
2023/11/09 04:54:57;;;;;;;0.30;0.30;;;7.10;99.90;;;;;;5043971;28;20402;-82
2023/11/09 05:08:34;;;;;;;1.38;1.27;;;7.20;99.90;;;;;;5042640;28;20470;-80
2023/11/09 05:11:00;;;;;;;0.82;0.60;;;7.30;99.90;;;;;;5027940;28;20056;-78
2023/11/09 05:13:26;;;;;;;0.75;0.70;;;7.30;99.90;;;;;;5042459;28;20029;-79
2023/11/09 05:15:53;;;;;;;0.20;0.20;;;7.30;99.90;;;;;;5046750;28;20025;-77
2023/11/09 05:18:20;;;;;;;0.80;0.80;;;7.30;99.90;;;;;;5043659;28;20386;-81
2023/11/09 05:20:48;;;;;;;0.10;0.10;;;7.30;99.90;;;;;;5040993;28;20039;-79
2023/11/09 05:23:14;;;;;;;0.75;0.73;;;7.30;99.90;;;;;;5039009;28;20049;-79
2023/11/09 05:25:41;;;;;;;0.35;0.30;;;7.40;99.90;;;;;;5038601;28;20044;-79
2023/11/09 05:28:08;;;;;;;0.20;0.20;;;7.40;99.90;;;;;;5041660;28;20044;-79
2023/11/09 05:30:34;;;;;;;0.20;0.20;;;7.40;99.90;;;;;;5040279;28;20558;-79
2023/11/09 05:33:00;;;;;;;0.17;0.17;;;7.30;99.90;;;;;;5045065;28;20035;-79
2023/11/09 05:35:27;;;;;;;0.40;0.40;;;7.40;99.90;;;;;;5046147;28;20282;-80
2023/11/09 05:37:56;;;;;;;0.20;0.20;;;7.40;99.90;;;;;;5031694;28;20032;-79
2023/11/09 05:40:22;;;;;;;0.63;0.63;;;7.30;99.90;;;;;;5040865;28;20037;-79
2023/11/09 05:42:48;;;;;;;0.20;0.20;;;7.30;99.90;;;;;;5041255;28;20029;-80
2023/11/09 05:45:15;;;;;;;0.50;0.50;;;7.30;99.90;;;;;;5050832;28;20048;-78
2023/11/09 05:47:41;;;;;;;0.55;0.55;;;7.30;99.90;;;;;;5042757;28;20501;-77
2023/11/09 05:50:08;;;;;;;0.70;0.57;;;7.30;99.90;;;;;;5043317;28;20029;-78
2023/11/09 05:52:37;;;;;;;2.92;0.68;;;7.30;99.90;;;;;;5041072;28;20425;-78
2023/11/09 05:55:04;;;;;;;6.80;1.35;;;7.30;99.90;;;;;;5047959;28;20048;-79
2023/11/09 05:57:31;;;;;;;1.27;0.32;;;7.40;99.90;;;;;;5031257;28;20048;-78
2023/11/09 05:59:57;;;;;;;0.20;0.20;;;7.40;99.90;;;;;;5043298;28;20532;-78
2023/11/09 06:02:23;;;;;;;0.45;0.45;;;7.40;99.90;;;;;;5045084;28;20041;-79
2023/11/09 06:04:49;;;;;;;0.20;0.20;;;7.40;99.90;;;;;;5042659;28;20029;-78
2023/11/09 06:07:16;;;;;;;1.38;1.27;;;7.40;99.90;;;;;;5047179;28;20040;-78
2023/11/09 06:09:43;;;;;;;3.70;0.80;;;7.50;99.90;;;;;;5044058;28;20050;-79
2023/11/09 06:12:09;;;;;;;1.05;0.95;;;7.50;99.90;;;;;;5027876;28;20042;-78
2023/11/09 06:14:37;;;;;;;1.15;1.05;;;7.60;99.90;;;;;;5045222;28;20060;-78
2023/11/09 06:17:03;;;;;;;0.13;0.13;;;7.70;99.90;;;;;;5045442;28;20028;-80
2023/11/09 06:19:29;;;;;;;0.40;0.40;;;7.70;99.90;;;;;;5043249;28;20021;-77
2023/11/09 06:21:56;;;;;;;0.17;0.17;;;7.70;94.80;;;;;;5045087;28;20025;-77
2023/11/09 06:24:23;;;;;;;0.10;0.10;;;7.70;92.70;;;;;;5042778;28;20029;-75
2023/11/09 06:26:53;;;;;;;0.43;0.43;;;7.70;92.20;;;;;;5042953;28;20044;-76
2023/11/09 06:29:20;;;;;;;0.15;0.15;;;7.80;90.40;;;;;;5047553;28;20036;-77
2023/11/09 06:31:47;;;;;;;0.20;0.20;;;7.70;93.00;;;;;;5026548;28;20064;-78
2023/11/09 06:34:14;;;;;;;0.10;0.10;;;7.70;90.70;;;;;;5041462;28;20485;-78
2023/11/09 06:36:43;;;;;;;0.20;0.20;;;7.70;86.70;;;;;;5042591;28;20025;-77
2023/11/09 06:39:16;;;;;;;0.43;0.43;;;7.80;83.90;;;;;;5041412;28;20478;-78
2023/11/09 06:41:44;;;;;;;0.20;0.20;;;7.80;84.70;;;;;;5039336;28;20037;-79
2023/11/09 06:44:10;;;;;;;0.50;0.50;;;7.80;67.50;;;;;;5030221;28;20042;-78
2023/11/09 06:46:39;;;;;;;0.30;0.30;;;7.80;78.90;;;;;;5043488;28;20075;-78
2023/11/09 06:49:09;;;;;;;0.45;0.45;;;7.80;66.30;;;;;;5045682;28;20470;-78
2023/11/09 06:51:35;;;;;;;0.28;0.28;;;7.80;91.80;;;;;;5042639;28;20045;-78
2023/11/09 06:54:02;;;;;;;0.13;0.13;;;7.80;99.90;;;;;;5041985;28;20033;-80
2023/11/09 06:56:29;;;;;;;0.20;0.20;;;7.80;99.90;;;;;;5040283;28;20040;-78
2023/11/09 06:58:55;;;;;;;0.30;0.30;;;7.70;99.90;;;;;;5043073;28;20025;-78
2023/11/09 07:01:22;;;;;;;0.10;0.10;;;7.70;99.90;;;;;;5044117;28;20033;-80
2023/11/09 07:03:49;;;;;;;0.20;0.20;;;7.60;99.90;;;;;;5047003;28;20025;-79
2023/11/09 07:06:15;;;;;;;0.25;0.25;;;7.60;99.90;;;;;;5058303;28;20029;-78
2023/11/09 07:08:42;;;;;;;0.25;0.17;;;7.50;99.90;;;;;;5060342;28;20051;-77
2023/11/09 07:11:09;;;;;;;0.20;0.20;;;7.40;99.90;;;;;;5053050;28;20048;-78
2023/11/09 07:13:37;;;;;;;1.52;1.42;;;7.50;99.90;;;;;;5042299;28;20036;-79
2023/11/09 07:16:05;;;;;;;9.75;8.95;;;7.40;99.90;;;;;;5042633;28;20036;-79
2023/11/09 07:18:31;;;;;;;4.90;4.50;;;7.40;99.90;;;;;;5027668;28;20033;-80
2023/11/09 07:20:57;;;;;;;0.80;0.80;;;7.30;99.90;;;;;;5041454;28;20021;-79
2023/11/09 07:23:24;;;;;;;1.10;1.02;;;7.20;99.90;;;;;;5042535;28;20036;-79
2023/11/09 07:25:53;;;;;;;0.70;0.70;;;7.20;1.00;;;;;;5044171;28;20029;-79
2023/11/09 07:28:24;;;;;;;0.20;0.20;;;7.20;1.00;;;;;;5038970;28;20036;-79
2023/11/09 07:30:51;;;;;;;0.30;0.30;;;7.30;1.00;;;;;;5031281;28;20052;-77
2023/11/09 07:33:18;;;;;;;0.30;0.30;;;7.30;1.00;;;;;;5043645;28;20489;-79
2023/11/09 07:35:47;;;;;;;0.63;0.50;;;7.30;99.90;;;;;;5039274;28;20045;-80
2023/11/09 07:38:13;;;;;;;0.45;0.45;;;7.40;99.90;;;;;;5037516;28;20026;-79
2023/11/09 07:40:41;;;;;;;0.40;0.40;;;7.50;99.90;;;;;;5027964;28;20048;-77
2023/11/09 07:43:10;;;;;;;0.52;0.52;;;7.50;1.00;;;;;;5043867;28;20040;-79
2023/11/09 07:45:37;;;;;;;0.38;0.30;;;7.50;1.00;;;;;;5040959;28;20033;-78
2023/11/09 07:48:04;;;;;;;0.57;0.57;;;7.50;99.90;;;;;;5018812;28;20025;-78
2023/11/09 07:50:34;;;;;;;0.10;0.10;;;7.60;99.90;;;;;;5038639;28;20037;-79
2023/11/09 07:53:03;;;;;;;0.50;0.20;;;7.60;99.90;;;;;;5043527;28;20041;-78
2023/11/09 07:55:29;;;;;;;9.80;5.88;;;7.60;99.90;;;;;;5042992;28;20505;-78
2023/11/09 07:57:58;;;;;;;5.97;5.18;;;7.70;99.90;;;;;;5037411;28;20025;-78
2023/11/09 08:00:24;;;;;;;5.90;5.47;;;7.80;99.90;;;;;;5044529;28;20037;-77
2023/11/09 08:02:51;;;;;;;4.07;3.38;;;7.80;99.90;;;;;;5039501;28;20044;-77
2023/11/09 08:05:18;;;;;;;3.97;3.13;;;7.80;99.90;;;;;;5043534;28;20029;-78
2023/11/09 08:07:45;;;;;;;0.50;0.50;;;7.80;99.90;;;;;;5042331;28;20025;-77
2023/11/09 08:10:12;;;;;;;9.40;1.88;;;7.80;99.90;;;;;;5042460;28;20052;-77
2023/11/09 08:12:41;;;;;;;0.40;0.40;;;7.80;99.90;;;;;;5042945;28;20056;-77
2023/11/09 08:15:10;;;;;;;0.63;0.40;;;7.80;99.90;;;;;;5041700;28;20037;-76
2023/11/09 08:17:41;;;;;;;0.68;0.68;;;7.80;99.90;;;;;;5038215;28;20036;-77
2023/11/09 08:20:09;;;;;;;0.35;0.35;;;7.80;99.90;;;;;;5040571;28;20044;-78
2023/11/09 08:22:35;;;;;;;1.65;0.85;;;7.80;99.90;;;;;;5041124;28;20045;-78
2023/11/09 08:25:03;;;;;;;0.10;0.10;;;7.70;99.90;;;;;;5041159;28;20044;-77
2023/11/09 08:27:30;;;;;;;0.20;0.20;;;7.70;99.90;;;;;;5040343;28;20513;-74
2023/11/09 08:29:57;;;;;;;0.55;0.55;;;7.70;99.90;;;;;;5040781;28;20210;-77
2023/11/09 08:32:26;;;;;;;1.02;0.95;;;7.80;99.90;;;;;;5020558;28;20049;-77
2023/11/09 08:34:53;;;;;;;0.20;0.20;;;7.80;99.90;;;;;;5021930;28;20064;-76
2023/11/09 08:37:21;;;;;;;0.82;0.60;;;7.80;99.90;;;;;;5041566;28;20028;-78
2023/11/09 08:39:48;;;;;;;0.25;0.25;;;7.90;99.90;;;;;;5042661;28;20470;-78
2023/11/09 08:42:17;;;;;;;0.10;0.10;;;8.00;99.90;;;;;;5038829;28;20041;-77
2023/11/09 08:44:43;;;;;;;0.20;0.20;;;8.00;99.90;;;;;;5042852;28;20041;-77
2023/11/09 08:47:09;;;;;;;0.20;0.20;;;8.00;99.90;;;;;;5041580;28;20434;-76
2023/11/09 08:49:37;;;;;;;0.20;0.20;;;8.00;99.90;;;;;;5043936;28;20037;-77
2023/11/09 08:52:04;;;;;;;0.77;0.75;;;8.10;99.90;;;;;;5041215;28;20045;-77
2023/11/09 08:54:31;;;;;;;2.13;1.98;;;8.10;99.90;;;;;;5043790;28;20037;-77
2023/11/09 08:56:58;;;;;;;16.33;1.83;;;8.10;99.90;;;;;;5040159;28;20569;-76
2023/11/09 08:59:24;;;;;;;2.78;2.58;;;8.10;99.90;;;;;;5032777;28;20029;-76
2023/11/09 09:01:52;;;;;;;0.73;0.73;;;8.20;99.90;;;;;;5021884;28;20397;-76
2023/11/09 09:04:18;;;;;;;1.70;1.60;;;8.20;99.90;;;;;;5044632;28;20044;-76
2023/11/09 09:06:45;;;;;;;0.85;0.85;;;8.20;99.90;;;;;;5045324;28;20048;-76
2023/11/09 09:09:15;;;;;;;1.23;1.10;;;8.30;99.90;;;;;;5021904;28;20041;-76
2023/11/09 09:11:43;;;;;;;1.10;1.02;;;8.30;99.90;;;;;;5052564;28;20044;-76
2023/11/09 09:14:12;;;;;;;0.50;0.30;;;8.30;99.90;;;;;;5040846;28;20033;-76
2023/11/09 09:16:38;;;;;;;0.22;0.22;;;8.30;99.90;;;;;;5044872;28;20052;-76
2023/11/09 09:19:05;;;;;;;0.40;0.40;;;8.30;99.90;;;;;;5041380;28;20029;-76
2023/11/09 09:21:32;;;;;;;0.10;0.10;;;8.30;99.90;;;;;;5046807;28;20025;-76
2023/11/09 09:23:58;;;;;;;1.10;0.88;;;8.30;99.90;;;;;;5048335;28;20025;-76
2023/11/09 09:26:26;;;;;;;0.10;0.10;;;8.40;99.90;;;;;;5043082;28;20044;-76
2023/11/09 09:28:52;;;;;;;0.10;0.10;;;8.40;99.90;;;;;;5037984;28;20057;-76
2023/11/09 09:31:18;;;;;;;0.13;0.13;;;8.40;99.90;;;;;;5028143;28;20044;-76
2023/11/09 09:33:56;;;;;;;0.60;0.60;;;8.40;99.90;;;;;;5043993;28;20120;-76
2023/11/09 09:36:23;;;;;;;0.10;0.10;;;8.50;99.90;;;;;;5044469;28;20033;-76
2023/11/09 09:38:51;;;;;;;0.70;0.50;;;8.50;99.90;;;;;;5048003;28;20033;-75
2023/11/09 09:41:26;;;;;;;0.20;0.20;;;8.50;99.90;;;;;;5056080;28;20041;-75
2023/11/09 09:43:57;;;;;;;1.00;0.52;;;8.50;99.90;;;;;;5054023;28;20033;-76
2023/11/09 09:46:24;;;;;;;0.82;0.82;;;8.50;99.90;;;;;;5045123;28;20362;-76
2023/11/09 09:48:54;;;;;;;0.10;0.10;;;8.50;99.90;;;;;;5029995;28;20049;-75
2023/11/09 09:51:21;;;;;;;3.30;3.00;;;8.60;99.90;;;;;;5044528;28;20044;-75
2023/11/09 09:53:49;;;;;;;7.28;6.55;;;8.70;99.90;;;;;;5046307;28;20064;-75
2023/11/09 09:56:19;;;;;;;3.83;3.40;;;8.80;99.90;;;;;;5028704;28;20037;-75
2023/11/09 09:58:45;;;;;;;2.13;1.98;;;8.80;99.90;;;;;;5040333;28;20033;-74
2023/11/09 10:01:12;;;;;;;5.85;2.28;;;8.90;99.90;;;;;;5038891;28;20029;-74
2023/11/09 10:03:39;;;;;;;6.90;5.85;;;9.00;99.90;;;;;;5047969;28;20029;-75
2023/11/09 10:06:06;;;;;;;3.90;2.50;;;9.10;99.90;;;;;;5043526;28;20036;-74
2023/11/09 10:08:33;;;;;;;1.45;1.35;;;9.10;99.90;;;;;;5026771;28;20462;-77
2023/11/09 10:10:59;;;;;;;0.95;0.95;;;9.20;99.90;;;;;;5041170;28;20576;-76
2023/11/09 10:13:27;;;;;;;1.83;0.98;;;9.30;99.90;;;;;;5044191;28;20038;-76
2023/11/09 10:15:58;;;;;;;0.98;0.25;;;9.30;99.90;;;;;;5047125;28;20473;-76
2023/11/09 10:18:26;;;;;;;0.50;0.50;;;9.20;99.90;;;;;;5040245;28;20060;-74
2023/11/09 10:20:56;;;;;;;0.30;0.30;;;9.20;99.90;;;;;;5039489;28;20025;-75
2023/11/09 10:23:26;;;;;;;0.20;0.20;;;9.20;99.90;;;;;;5044466;28;20053;-75
2023/11/09 10:25:55;;;;;;;0.30;0.30;;;9.30;99.90;;;;;;5040448;28;20040;-75
2023/11/09 10:28:22;;;;;;;0.25;0.25;;;9.30;1.00;;;;;;5039864;28;20033;-75
2023/11/09 10:30:48;;;;;;;0.60;0.57;;;9.40;1.00;;;;;;5040148;28;20359;-76
2023/11/09 10:33:17;;;;;;;0.13;0.13;;;9.30;1.00;;;;;;5038064;28;20043;-75
2023/11/09 10:35:47;;;;;;;0.55;0.55;;;9.30;1.00;;;;;;5040919;28;20061;-76
2023/11/09 10:38:17;;;;;;;0.10;0.10;;;9.30;1.00;;;;;;5028119;28;20053;-75
2023/11/09 10:40:44;;;;;;;1.00;0.85;;;9.30;1.00;;;;;;5039039;28;20048;-76
2023/11/09 10:43:15;;;;;;;0.40;0.40;;;9.20;1.00;;;;;;5039029;28;20056;-75
2023/11/09 10:45:45;;;;;;;1.08;0.88;;;9.20;1.00;;;;;;5047547;28;20386;-75
2023/11/09 10:48:19;;;;;;;0.43;0.43;;;9.20;1.00;;;;;;5043854;28;20025;-76
2023/11/09 10:50:48;;;;;;;0.30;0.30;;;9.20;1.00;;;;;;5039695;28;20041;-75
2023/11/09 10:53:20;;;;;;;0.10;0.10;;;9.30;1.00;;;;;;5041555;28;20036;-75
2023/11/09 10:55:59;;;;;;;3.15;0.77;;;9.30;1.00;;;;;;5039121;28;20034;-76
2023/11/09 10:58:26;;;;;;;0.52;0.52;;;9.50;1.00;;;;;;5044366;28;20029;-75
2023/11/09 11:00:58;;;;;;;3.88;2.13;;;9.50;1.00;;;;;;5038580;28;20052;-75
2023/11/09 11:03:39;;;;;;;1.15;1.05;;;9.50;1.00;;;;;;5039759;28;20497;-75
2023/11/09 11:06:11;;;;;;;0.63;0.60;;;9.60;1.00;;;;;;5039493;28;20501;-76
2023/11/09 11:08:42;;;;;;;1.88;1.55;;;9.60;1.00;;;;;;5046725;28;20041;-76
2023/11/09 11:11:17;;;;;;;0.28;0.28;;;9.70;1.00;;;;;;5040830;28;20045;-75
2023/11/09 11:13:57;;;;;;;0.82;0.82;;;9.70;1.00;;;;;;5026400;28;20040;-76
2023/11/09 11:16:49;;;;;;;0.80;0.80;;;9.70;1.00;;;;;;5020971;28;20058;-76
2023/11/09 11:19:42;;;;;;;0.65;0.65;;;9.80;99.90;;;;;;5029784;28;20040;-76
2023/11/09 11:22:48;;;;;;;9.95;1.25;;;9.80;99.90;;;;;;5029693;28;20052;-75
2023/11/09 11:25:26;;;;;;;0.68;0.50;;;10.00;99.90;;;;;;5046011;28;20024;-76
2023/11/09 11:28:00;;;;;;;0.32;0.32;;;10.10;99.90;;;;;;5040131;28;20512;-77
2023/11/09 11:30:33;;;;;;;0.75;0.75;;;10.20;99.90;;;;;;5042146;28;20474;-76
2023/11/09 11:33:04;;;;;;;1.48;0.63;;;10.40;99.90;;;;;;5039286;28;20044;-76
2023/11/09 11:35:51;;;;;;;0.30;0.30;;;10.60;99.90;;;;;;5039701;28;20045;-76
2023/11/09 11:38:22;;;;;;;0.13;0.13;;;10.70;99.90;;;;;;5041129;28;20061;-76
2023/11/09 11:40:57;;;;;;;0.33;0.30;;;10.60;99.90;;;;;;5030321;28;20048;-76
2023/11/09 11:43:32;;;;;;;1.05;0.65;;;10.50;99.90;;;;;;5040053;28;20298;-75
2023/11/09 11:45:59;;;;;;;0.30;0.30;;;10.50;99.90;;;;;;5037036;28;20040;-75
2023/11/09 11:48:30;;;;;;;1.13;1.02;;;10.40;99.90;;;;;;5040572;28;20029;-76
2023/11/09 11:51:06;;;;;;;0.32;0.32;;;10.40;99.90;;;;;;5045159;28;20028;-76
2023/11/09 11:53:34;;;;;;;0.10;0.10;;;10.30;99.90;;;;;;5040851;28;20033;-76
2023/11/09 11:56:07;;;;;;;1.17;0.68;;;10.30;99.90;;;;;;5037885;28;20036;-75
2023/11/09 11:58:46;;;;;;;0.40;0.22;;;10.30;99.90;;;;;;5038213;28;20521;-76
2023/11/09 12:01:20;;;;;;;0.35;0.35;;;10.20;99.90;;;;;;5044617;28;20036;-76
2023/11/09 12:03:53;;;;;;;2.50;0.98;;;10.20;99.90;;;;;;5043545;28;20032;-76
2023/11/09 12:06:21;;;;;;;0.82;0.82;;;10.30;99.90;;;;;;5041513;28;20036;-75
2023/11/09 12:09:09;;;;;;;1.30;0.80;;;10.20;99.90;;;;;;5041433;28;20052;-77
2023/11/09 12:11:43;;;;;;;1.70;0.75;;;10.20;99.90;;;;;;5042409;28;20067;-75
2023/11/09 12:14:09;;;;;;;1.08;0.98;;;10.20;99.90;;;;;;5043525;28;20041;-75
2023/11/09 12:16:38;;;;;;;0.40;0.40;;;10.10;99.90;;;;;;5041109;28;20040;-75
2023/11/09 12:19:06;;;;;;;1.95;1.02;;;10.10;99.90;;;;;;5033038;28;20030;-76
2023/11/09 12:21:34;;;;;;;0.10;0.10;;;10.00;1.00;;;;;;5047049;28;20359;-76
2023/11/09 12:24:00;;;;;;;1.38;1.05;;;10.00;1.00;;;;;;5044973;28;20029;-76
2023/11/09 12:26:32;;;;;;;1.75;1.25;;;10.00;1.00;;;;;;5041450;28;20037;-76
2023/11/09 12:29:01;;;;;;;0.52;0.50;;;10.00;1.00;;;;;;5045830;28;20042;-77
2023/11/09 12:31:29;;;;;;;0.10;0.10;;;10.00;1.00;;;;;;5050802;28;20025;-77
2023/11/09 12:34:07;;;;;;;0.30;0.30;;;10.00;99.90;;;;;;5044922;28;20034;-76
2023/11/09 12:36:46;;;;;;;0.57;0.57;;;10.00;1.00;;;;;;5042973;28;20068;-76
2023/11/09 12:39:30;;;;;;;0.13;0.13;;;10.10;99.90;;;;;;5043042;28;20056;-75
2023/11/09 12:41:59;;;;;;;0.63;0.63;;;10.20;99.90;;;;;;5042842;28;20033;-75
2023/11/09 12:44:29;;;;;;;5.03;0.85;;;10.30;99.90;;;;;;5030557;28;20036;-76
2023/11/09 12:46:57;;;;;;;0.38;0.38;;;10.40;99.90;;;;;;5042254;28;20045;-75
2023/11/09 12:49:26;;;;;;;0.40;0.40;;;10.50;99.90;;;;;;5043107;28;20034;-76
2023/11/09 12:51:53;;;;;;;1.25;0.80;;;10.70;99.90;;;;;;5042288;28;20387;-76
2023/11/09 12:54:22;;;;;;;0.17;0.17;;;10.90;99.90;;;;;;5050741;28;20036;-76
2023/11/09 12:56:49;;;;;;;0.40;0.40;;;11.00;99.90;;;;;;5046027;28;20045;-75
2023/11/09 12:59:24;;;;;;;0.43;0.43;;;11.10;99.90;;;;;;5046810;28;20039;-76
2023/11/09 13:01:57;;;;;;;1.13;1.02;;;11.10;99.90;;;;;;5048337;28;20402;-75
2023/11/09 13:04:28;;;;;;;3.78;3.53;;;11.10;99.90;;;;;;5027394;28;20052;-75
2023/11/09 13:06:58;;;;;;;0.30;0.30;;;11.20;99.90;;;;;;5041106;28;20063;-75
2023/11/09 13:14:45;;;;;;;0.47;0.38;;;11.20;99.90;;;;;;5041269;28;20045;-75
2023/11/09 13:17:16;;;;;;;0.38;0.30;;;11.00;99.90;;;;;;5047280;28;20038;-75
2023/11/09 13:19:48;;;;;;;0.45;0.45;;;11.00;99.90;;;;;;5046054;28;20056;-75